Terminal Aerodrome Forecast
Issued by NWS

Home | Current Version | Previous Version | Text Only | Print | Product List | Glossary On
Versions: 1 2 3 4 5 6 7 8 9 10 11 12 13 14 15 16 17 18 19 20 21
000
FTAK31 PANC 181247 AAA
TAFAGK
TAF AMD
PAGK 181247Z 1813/1912 00000KT P6SM VCFG SCT001 OVC100
      TEMPO 1813/1815 1/4SM FZFG VV001
     FM181500 34002KT P6SM VCFG SCT040
     FM181900 35003KT P6SM BKN050=

USA.gov is the U.S. government's official web portal to all federal, state and local government web resources and services.